sensor_id;sensor_type;location;lat;lon;timestamp;pressure;altitude;pressure_sealevel;temperature;humidity
16793;BME280;8513;42.662;23.350;2023-04-26T00:01:29;93985.88;;;11.35;69.00
16793;BME280;8513;42.662;23.350;2023-04-26T00:03:55;93978.88;;;11.27;68.93
16793;BME280;8513;42.662;23.350;2023-04-26T00:06:20;93983.22;;;11.20;69.41
16793;BME280;8513;42.662;23.350;2023-04-26T00:08:46;93978.97;;;11.19;69.52
16793;BME280;8513;42.662;23.350;2023-04-26T00:11:11;93967.53;;;11.12;69.62
16793;BME280;8513;42.662;23.350;2023-04-26T00:13:37;93959.03;;;11.10;69.37
16793;BME280;8513;42.662;23.350;2023-04-26T00:16:03;93964.56;;;11.15;69.29
16793;BME280;8513;42.662;23.350;2023-04-26T00:18:29;93947.41;;;11.19;69.29
16793;BME280;8513;42.662;23.350;2023-04-26T00:20:56;93958.28;;;11.16;69.32
16793;BME280;8513;42.662;23.350;2023-04-26T00:23:21;93958.19;;;11.09;69.33
16793;BME280;8513;42.662;23.350;2023-04-26T00:25:47;93949.69;;;11.07;69.75
16793;BME280;8513;42.662;23.350;2023-04-26T00:28:12;93956.56;;;11.08;69.68
16793;BME280;8513;42.662;23.350;2023-04-26T00:30:38;93954.31;;;11.05;69.79
16793;BME280;8513;42.662;23.350;2023-04-26T00:33:06;93948.03;;;11.06;69.50
16793;BME280;8513;42.662;23.350;2023-04-26T00:35:31;93952.41;;;10.99;69.72
16793;BME280;8513;42.662;23.350;2023-04-26T00:37:57;93936.94;;;10.96;69.38
16793;BME280;8513;42.662;23.350;2023-04-26T00:40:22;93945.69;;;10.96;68.98
16793;BME280;8513;42.662;23.350;2023-04-26T00:42:48;93936.50;;;10.92;69.03
16793;BME280;8513;42.662;23.350;2023-04-26T00:45:13;93936.50;;;10.92;68.32
16793;BME280;8513;42.662;23.350;2023-04-26T00:47:39;93941.69;;;10.86;69.23
16793;BME280;8513;42.662;23.350;2023-04-26T00:50:06;93936.44;;;10.86;68.96
16793;BME280;8513;42.662;23.350;2023-04-26T00:52:32;93936.78;;;10.82;69.12
16793;BME280;8513;42.662;23.350;2023-04-26T00:54:58;93949.47;;;10.79;69.21
16793;BME280;8513;42.662;23.350;2023-04-26T00:57:24;93949.47;;;10.79;69.17
16793;BME280;8513;42.662;23.350;2023-04-26T00:59:50;93941.97;;;10.53;69.85
16793;BME280;8513;42.662;23.350;2023-04-26T01:02:15;93942.66;;;10.70;69.39
16793;BME280;8513;42.662;23.350;2023-04-26T01:04:41;93948.06;;;10.68;69.68
16793;BME280;8513;42.662;23.350;2023-04-26T01:07:10;93951.72;;;10.67;69.48
16793;BME280;8513;42.662;23.350;2023-04-26T01:09:36;93960.69;;;10.73;69.28
16793;BME280;8513;42.662;23.350;2023-04-26T01:12:02;93959.59;;;10.67;69.76
16793;BME280;8513;42.662;23.350;2023-04-26T01:14:28;93955.31;;;10.51;69.95
16793;BME280;8513;42.662;23.350;2023-04-26T01:16:54;93957.03;;;10.59;69.49
16793;BME280;8513;42.662;23.350;2023-04-26T01:19:20;93965.09;;;10.57;69.79
16793;BME280;8513;42.662;23.350;2023-04-26T01:21:46;93951.78;;;10.59;69.74
16793;BME280;8513;42.662;23.350;2023-04-26T01:24:12;93940.91;;;10.62;69.38
16793;BME280;8513;42.662;23.350;2023-04-26T01:26:38;93934.19;;;10.59;69.76
16793;BME280;8513;42.662;23.350;2023-04-26T01:29:19;93937.56;;;10.53;69.54
16793;BME280;8513;42.662;23.350;2023-04-26T01:31:45;93932.47;;;10.52;69.13
16793;BME280;8513;42.662;23.350;2023-04-26T01:34:12;93933.81;;;10.48;69.11
16793;BME280;8513;42.662;23.350;2023-04-26T01:36:37;93939.72;;;10.27;70.13
16793;BME280;8513;42.662;23.350;2023-04-26T01:39:03;93938.22;;;10.32;69.96
16793;BME280;8513;42.662;23.350;2023-04-26T01:41:28;93939.31;;;10.38;69.59
16793;BME280;8513;42.662;23.350;2023-04-26T01:43:54;93950.97;;;10.12;69.67
16793;BME280;8513;42.662;23.350;2023-04-26T01:46:20;93951.22;;;10.03;69.99
16793;BME280;8513;42.662;23.350;2023-04-26T01:48:45;93951.53;;;9.77;70.93
16793;BME280;8513;42.662;23.350;2023-04-26T01:51:11;93963.03;;;9.76;71.33
16793;BME280;8513;42.662;23.350;2023-04-26T01:53:37;93953.22;;;9.92;70.63
16793;BME280;8513;42.662;23.350;2023-04-26T01:56:02;93950.41;;;9.94;69.61
16793;BME280;8513;42.662;23.350;2023-04-26T01:58:28;93957.88;;;9.82;69.52
16793;BME280;8513;42.662;23.350;2023-04-26T02:00:55;93942.25;;;9.89;69.06
16793;BME280;8513;42.662;23.350;2023-04-26T02:03:21;93932.84;;;9.71;68.92
16793;BME280;8513;42.662;23.350;2023-04-26T02:05:46;93935.72;;;9.85;68.52
16793;BME280;8513;42.662;23.350;2023-04-26T02:08:12;93935.91;;;10.06;68.10
16793;BME280;8513;42.662;23.350;2023-04-26T02:10:37;93932.63;;;10.04;68.66
16793;BME280;8513;42.662;23.350;2023-04-26T02:13:03;93929.66;;;10.07;69.20
16793;BME280;8513;42.662;23.350;2023-04-26T02:15:29;93938.00;;;10.11;68.88
16793;BME280;8513;42.662;23.350;2023-04-26T02:17:55;93934.09;;;10.07;68.85
16793;BME280;8513;42.662;23.350;2023-04-26T02:20:20;93927.72;;;10.01;69.43
16793;BME280;8513;42.662;23.350;2023-04-26T02:22:46;93921.47;;;10.02;69.31
16793;BME280;8513;42.662;23.350;2023-04-26T02:25:11;93925.84;;;10.10;68.93
16793;BME280;8513;42.662;23.350;2023-04-26T02:27:37;93928.69;;;10.08;69.20
16793;BME280;8513;42.662;23.350;2023-04-26T02:30:03;93941.25;;;10.13;69.27
16793;BME280;8513;42.662;23.350;2023-04-26T02:32:28;93929.03;;;10.05;69.31
16793;BME280;8513;42.662;23.350;2023-04-26T02:34:54;93940.28;;;10.14;69.26
16793;BME280;8513;42.662;23.350;2023-04-26T02:37:20;93939.84;;;10.10;69.44
16793;BME280;8513;42.662;23.350;2023-04-26T02:39:49;93939.53;;;10.05;69.00
16793;BME280;8513;42.662;23.350;2023-04-26T02:42:15;93931.00;;;10.03;68.12
16793;BME280;8513;42.662;23.350;2023-04-26T02:44:41;93928.78;;;9.92;67.94
16793;BME280;8513;42.662;23.350;2023-04-26T02:47:07;93935.44;;;10.03;67.14
16793;BME280;8513;42.662;23.350;2023-04-26T02:49:32;93935.44;;;10.03;66.28
16793;BME280;8513;42.662;23.350;2023-04-26T02:51:58;93917.59;;;9.98;66.14
16793;BME280;8513;42.662;23.350;2023-04-26T02:54:23;93913.78;;;10.01;66.23
16793;BME280;8513;42.662;23.350;2023-04-26T02:56:49;93915.00;;;10.13;65.97
16793;BME280;8513;42.662;23.350;2023-04-26T02:59:14;93911.97;;;10.01;67.21
16793;BME280;8513;42.662;23.350;2023-04-26T03:01:40;93912.97;;;10.00;68.03
16793;BME280;8513;42.662;23.350;2023-04-26T03:04:05;93910.28;;;10.08;67.84
16793;BME280;8513;42.662;23.350;2023-04-26T03:06:31;93910.59;;;10.13;67.88
16793;BME280;8513;42.662;23.350;2023-04-26T03:08:57;93912.66;;;10.18;67.98
16793;BME280;8513;42.662;23.350;2023-04-26T03:11:23;93917.59;;;10.21;67.66
16793;BME280;8513;42.662;23.350;2023-04-26T03:13:48;93913.78;;;10.24;67.05
16793;BME280;8513;42.662;23.350;2023-04-26T03:16:13;93923.16;;;10.18;66.21
16793;BME280;8513;42.662;23.350;2023-04-26T03:18:40;93909.16;;;10.26;65.64
16793;BME280;8513;42.662;23.350;2023-04-26T03:21:05;93907.66;;;10.31;66.00
16793;BME280;8513;42.662;23.350;2023-04-26T03:23:31;93910.47;;;10.30;67.02
16793;BME280;8513;42.662;23.350;2023-04-26T03:25:56;93911.28;;;10.30;67.76
16793;BME280;8513;42.662;23.350;2023-04-26T03:28:22;93909.56;;;10.14;68.49
16793;BME280;8513;42.662;23.350;2023-04-26T03:30:48;93913.22;;;10.13;69.11
16793;BME280;8513;42.662;23.350;2023-04-26T03:33:14;93915.41;;;9.79;70.15
16793;BME280;8513;42.662;23.350;2023-04-26T03:35:41;93912.91;;;9.85;70.44
16793;BME280;8513;42.662;23.350;2023-04-26T03:38:07;93917.94;;;9.95;70.12
16793;BME280;8513;42.662;23.350;2023-04-26T03:40:32;93924.09;;;10.02;69.89
16793;BME280;8513;42.662;23.350;2023-04-26T03:42:58;93922.63;;;10.08;69.86
16793;BME280;8513;42.662;23.350;2023-04-26T03:45:23;93921.78;;;10.07;69.68
16793;BME280;8513;42.662;23.350;2023-04-26T03:47:51;93918.28;;;10.15;69.18
16793;BME280;8513;42.662;23.350;2023-04-26T03:50:16;93925.72;;;10.26;68.50
16793;BME280;8513;42.662;23.350;2023-04-26T03:52:44;93919.03;;;10.24;67.42
16793;BME280;8513;42.662;23.350;2023-04-26T03:55:09;93918.84;;;10.25;66.66
16793;BME280;8513;42.662;23.350;2023-04-26T03:57:36;93934.88;;;10.38;65.52
16793;BME280;8513;42.662;23.350;2023-04-26T04:00:03;93927.34;;;10.35;66.06
16793;BME280;8513;42.662;23.350;2023-04-26T04:02:36;93934.63;;;10.48;66.03
16793;BME280;8513;42.662;23.350;2023-04-26T04:05:01;93928.00;;;10.52;65.44
16793;BME280;8513;42.662;23.350;2023-04-26T04:07:27;93928.81;;;10.53;65.27
16793;BME280;8513;42.662;23.350;2023-04-26T04:09:52;93937.72;;;10.52;65.43
16793;BME280;8513;42.662;23.350;2023-04-26T04:12:18;93939.81;;;10.56;65.46
16793;BME280;8513;42.662;23.350;2023-04-26T04:14:43;93938.66;;;10.59;65.92
16793;BME280;8513;42.662;23.350;2023-04-26T04:17:08;93950.44;;;10.63;66.83
16793;BME280;8513;42.662;23.350;2023-04-26T04:19:35;93946.63;;;10.66;66.72
16793;BME280;8513;42.662;23.350;2023-04-26T04:22:01;93953.19;;;10.70;67.16
16793;BME280;8513;42.662;23.350;2023-04-26T04:24:27;93954.72;;;10.41;68.29
16793;BME280;8513;42.662;23.350;2023-04-26T04:26:52;93951.44;;;10.39;68.53
16793;BME280;8513;42.662;23.350;2023-04-26T04:29:18;93955.88;;;10.38;68.12
16793;BME280;8513;42.662;23.350;2023-04-26T04:31:44;93957.16;;;10.20;68.64
16793;BME280;8513;42.662;23.350;2023-04-26T04:34:10;93961.03;;;10.32;68.83
16793;BME280;8513;42.662;23.350;2023-04-26T04:36:35;93965.22;;;10.41;69.22
16793;BME280;8513;42.662;23.350;2023-04-26T04:39:03;93959.09;;;10.49;68.60
16793;BME280;8513;42.662;23.350;2023-04-26T04:41:30;93963.22;;;10.66;67.93
16793;BME280;8513;42.662;23.350;2023-04-26T04:43:56;93961.59;;;10.65;68.33
16793;BME280;8513;42.662;23.350;2023-04-26T04:46:21;93959.38;;;10.54;68.87
16793;BME280;8513;42.662;23.350;2023-04-26T04:48:47;93945.28;;;10.70;67.92
16793;BME280;8513;42.662;23.350;2023-04-26T04:51:12;93956.09;;;10.75;67.45
16793;BME280;8513;42.662;23.350;2023-04-26T04:53:38;93969.22;;;10.75;67.25
16793;BME280;8513;42.662;23.350;2023-04-26T04:56:03;93963.03;;;10.68;67.15
16793;BME280;8513;42.662;23.350;2023-04-26T04:58:29;93960.41;;;10.68;67.05
16793;BME280;8513;42.662;23.350;2023-04-26T05:00:55;93970.63;;;10.86;66.87
16793;BME280;8513;42.662;23.350;2023-04-26T05:03:20;93958.00;;;10.96;66.60
16793;BME280;8513;42.662;23.350;2023-04-26T05:05:46;93963.44;;;10.94;66.24
16793;BME280;8513;42.662;23.350;2023-04-26T05:08:12;93948.47;;;10.95;66.34
16793;BME280;8513;42.662;23.350;2023-04-26T05:10:37;93960.38;;;11.06;66.14
16793;BME280;8513;42.662;23.350;2023-04-26T05:13:03;93959.03;;;11.10;65.98
16793;BME280;8513;42.662;23.350;2023-04-26T05:15:29;93952.94;;;11.09;66.09
16793;BME280;8513;42.662;23.350;2023-04-26T05:17:55;93958.38;;;11.22;65.81
16793;BME280;8513;42.662;23.350;2023-04-26T05:20:21;93955.19;;;10.97;66.11
16793;BME280;8513;42.662;23.350;2023-04-26T05:22:46;93956.81;;;10.98;66.81
16793;BME280;8513;42.662;23.350;2023-04-26T05:25:12;93965.19;;;11.17;66.11
16793;BME280;8513;42.662;23.350;2023-04-26T05:27:38;93967.19;;;11.30;65.32
16793;BME280;8513;42.662;23.350;2023-04-26T05:30:04;93966.66;;;11.34;64.97
16793;BME280;8513;42.662;23.350;2023-04-26T05:32:30;93976.88;;;11.44;64.78
16793;BME280;8513;42.662;23.350;2023-04-26T05:34:56;93976.88;;;11.59;64.43
16793;BME280;8513;42.662;23.350;2023-04-26T05:37:22;93974.63;;;11.56;63.85
16793;BME280;8513;42.662;23.350;2023-04-26T05:39:47;93977.69;;;11.74;63.26
16793;BME280;8513;42.662;23.350;2023-04-26T05:42:13;93981.19;;;11.81;63.29
16793;BME280;8513;42.662;23.350;2023-04-26T05:44:39;93980.94;;;11.91;62.73
16793;BME280;8513;42.662;23.350;2023-04-26T05:47:05;93984.66;;;11.97;62.53
16793;BME280;8513;42.662;23.350;2023-04-26T05:49:30;93978.47;;;12.04;62.38
16793;BME280;8513;42.662;23.350;2023-04-26T05:51:58;93975.19;;;12.02;61.93
16793;BME280;8513;42.662;23.350;2023-04-26T05:54:24;93977.75;;;11.81;62.97
16793;BME280;8513;42.662;23.350;2023-04-26T05:56:49;93976.88;;;11.88;62.33
16793;BME280;8513;42.662;23.350;2023-04-26T05:59:15;93987.28;;;11.97;62.10
16793;BME280;8513;42.662;23.350;2023-04-26T06:01:41;93985.44;;;12.12;61.05
16793;BME280;8513;42.662;23.350;2023-04-26T06:04:06;93984.06;;;12.16;60.01
16793;BME280;8513;42.662;23.350;2023-04-26T06:06:32;93986.34;;;12.19;60.22
16793;BME280;8513;42.662;23.350;2023-04-26T06:08:57;93978.97;;;12.14;60.36
16793;BME280;8513;42.662;23.350;2023-04-26T06:11:23;93979.56;;;12.31;60.12
16793;BME280;8513;42.662;23.350;2023-04-26T06:13:48;93983.63;;;12.34;59.82
16793;BME280;8513;42.662;23.350;2023-04-26T06:16:13;93981.25;;;12.39;59.35
16793;BME280;8513;42.662;23.350;2023-04-26T06:18:39;93974.59;;;12.65;59.13
16793;BME280;8513;42.662;23.350;2023-04-26T06:21:05;93976.50;;;12.77;58.99
16793;BME280;8513;42.662;23.350;2023-04-26T06:23:30;93974.97;;;12.83;58.40
16793;BME280;8513;42.662;23.350;2023-04-26T06:25:56;93985.72;;;12.88;58.71
16793;BME280;8513;42.662;23.350;2023-04-26T06:28:21;93978.16;;;12.78;58.64
16793;BME280;8513;42.662;23.350;2023-04-26T06:30:47;93974.38;;;12.88;60.43
16793;BME280;8513;42.662;23.350;2023-04-26T06:33:12;93977.16;;;12.79;60.29
16793;BME280;8513;42.662;23.350;2023-04-26T06:35:39;93974.75;;;12.85;59.55
16793;BME280;8513;42.662;23.350;2023-04-26T06:38:05;93973.53;;;12.80;58.72
16793;BME280;8513;42.662;23.350;2023-04-26T06:40:30;93979.06;;;12.92;57.28
16793;BME280;8513;42.662;23.350;2023-04-26T06:42:56;93966.66;;;12.86;55.60
16793;BME280;8513;42.662;23.350;2023-04-26T06:45:22;93982.31;;;12.66;56.65
16793;BME280;8513;42.662;23.350;2023-04-26T06:47:50;93984.91;;;12.60;55.05
16793;BME280;8513;42.662;23.350;2023-04-26T06:50:16;93991.63;;;12.62;53.04
16793;BME280;8513;42.662;23.350;2023-04-26T06:52:41;93986.13;;;12.85;52.20
16793;BME280;8513;42.662;23.350;2023-04-26T06:55:07;93994.69;;;12.44;52.54
16793;BME280;8513;42.662;23.350;2023-04-26T06:57:33;93996.25;;;12.39;53.19
16793;BME280;8513;42.662;23.350;2023-04-26T06:59:58;93990.47;;;12.50;51.27
16793;BME280;8513;42.662;23.350;2023-04-26T07:02:24;93994.69;;;12.44;50.64
16793;BME280;8513;42.662;23.350;2023-04-26T07:04:49;93997.59;;;12.49;51.15
16793;BME280;8513;42.662;23.350;2023-04-26T07:07:15;93996.78;;;12.49;51.94
16793;BME280;8513;42.662;23.350;2023-04-26T07:09:41;93989.38;;;12.59;51.76
16793;BME280;8513;42.662;23.350;2023-04-26T07:12:07;93997.38;;;12.51;51.76
16793;BME280;8513;42.662;23.350;2023-04-26T07:14:35;94000.25;;;12.34;51.86
16793;BME280;8513;42.662;23.350;2023-04-26T07:17:02;93985.34;;;12.05;52.89
16793;BME280;8513;42.662;23.350;2023-04-26T07:19:28;93999.91;;;12.38;52.17
16793;BME280;8513;42.662;23.350;2023-04-26T07:21:53;94001.41;;;12.47;52.00
16793;BME280;8513;42.662;23.350;2023-04-26T07:24:19;93998.00;;;12.74;51.90
16793;BME280;8513;42.662;23.350;2023-04-26T07:26:44;93996.50;;;12.87;51.63
16793;BME280;8513;42.662;23.350;2023-04-26T07:29:09;93990.94;;;13.03;50.37
16793;BME280;8513;42.662;23.350;2023-04-26T07:31:35;93995.13;;;13.25;49.53
16793;BME280;8513;42.662;23.350;2023-04-26T07:34:00;93996.50;;;13.43;49.97
16793;BME280;8513;42.662;23.350;2023-04-26T07:36:26;93996.38;;;13.58;49.76
16793;BME280;8513;42.662;23.350;2023-04-26T07:38:52;93992.09;;;13.50;49.12
16793;BME280;8513;42.662;23.350;2023-04-26T07:41:17;93999.66;;;13.60;47.88
16793;BME280;8513;42.662;23.350;2023-04-26T07:43:43;94006.91;;;13.51;46.22
16793;BME280;8513;42.662;23.350;2023-04-26T07:46:08;94001.28;;;13.61;45.77
16793;BME280;8513;42.662;23.350;2023-04-26T07:48:33;94006.91;;;13.44;46.87
16793;BME280;8513;42.662;23.350;2023-04-26T07:51:12;94014.50;;;13.26;46.66
16793;BME280;8513;42.662;23.350;2023-04-26T07:53:38;94005.91;;;13.24;47.64
16793;BME280;8513;42.662;23.350;2023-04-26T07:56:05;94019.03;;;13.39;46.18
16793;BME280;8513;42.662;23.350;2023-04-26T07:58:32;94008.31;;;13.19;46.01
16793;BME280;8513;42.662;23.350;2023-04-26T08:00:59;94022.59;;;13.03;46.35
16793;BME280;8513;42.662;23.350;2023-04-26T08:03:24;94023.97;;;13.20;45.47
16793;BME280;8513;42.662;23.350;2023-04-26T08:05:52;94013.09;;;13.09;45.08
16793;BME280;8513;42.662;23.350;2023-04-26T08:08:18;94025.25;;;13.03;46.69
16793;BME280;8513;42.662;23.350;2023-04-26T08:10:44;94016.97;;;13.34;46.06
16793;BME280;8513;42.662;23.350;2023-04-26T08:13:10;94009.22;;;13.26;46.20
16793;BME280;8513;42.662;23.350;2023-04-26T08:15:35;94022.09;;;13.42;46.64
16793;BME280;8513;42.662;23.350;2023-04-26T08:18:01;94029.38;;;13.68;46.00
16793;BME280;8513;42.662;23.350;2023-04-26T08:20:26;94011.13;;;13.80;45.53
16793;BME280;8513;42.662;23.350;2023-04-26T08:22:55;94010.72;;;13.77;45.20
16793;BME280;8513;42.662;23.350;2023-04-26T08:25:22;94026.03;;;13.88;45.82
16793;BME280;8513;42.662;23.350;2023-04-26T08:27:48;94012.66;;;14.03;44.98
16793;BME280;8513;42.662;23.350;2023-04-26T08:30:13;94022.63;;;14.07;44.46
16793;BME280;8513;42.662;23.350;2023-04-26T08:32:39;94014.72;;;14.07;44.25
16793;BME280;8513;42.662;23.350;2023-04-26T08:35:05;94012.91;;;14.15;44.30
16793;BME280;8513;42.662;23.350;2023-04-26T08:37:30;94018.28;;;13.86;45.42
16793;BME280;8513;42.662;23.350;2023-04-26T08:39:56;94011.31;;;13.79;45.80
16793;BME280;8513;42.662;23.350;2023-04-26T08:42:25;94032.63;;;13.71;45.13
16793;BME280;8513;42.662;23.350;2023-04-26T08:44:52;94018.38;;;13.65;45.63
16793;BME280;8513;42.662;23.350;2023-04-26T08:49:53;94016.66;;;13.92;44.80
16793;BME280;8513;42.662;23.350;2023-04-26T08:52:26;94017.34;;;14.07;44.51
16793;BME280;8513;42.662;23.350;2023-04-26T08:54:53;94008.06;;;14.25;43.67
16793;BME280;8513;42.662;23.350;2023-04-26T08:57:23;94016.59;;;14.27;43.56
16793;BME280;8513;42.662;23.350;2023-04-26T08:59:49;94019.28;;;13.85;44.63
16793;BME280;8513;42.662;23.350;2023-04-26T09:02:24;94025.47;;;14.06;44.09
16793;BME280;8513;42.662;23.350;2023-04-26T09:04:50;94030.00;;;14.19;43.15
16793;BME280;8513;42.662;23.350;2023-04-26T09:07:30;94030.00;;;14.19;43.24
16793;BME280;8513;42.662;23.350;2023-04-26T09:09:57;94037.34;;;14.23;43.01
16793;BME280;8513;42.662;23.350;2023-04-26T09:12:23;94030.81;;;14.19;43.24
16793;BME280;8513;42.662;23.350;2023-04-26T09:14:49;94024.53;;;14.27;42.39
16793;BME280;8513;42.662;23.350;2023-04-26T09:17:27;94023.88;;;14.11;42.65
16793;BME280;8513;42.662;23.350;2023-04-26T09:19:55;94027.16;;;14.20;43.24
16793;BME280;8513;42.662;23.350;2023-04-26T09:22:32;94022.38;;;14.50;42.38
16793;BME280;8513;42.662;23.350;2023-04-26T09:24:59;94031.75;;;14.53;42.20
16793;BME280;8513;42.662;23.350;2023-04-26T09:27:37;94037.09;;;14.60;43.14
16793;BME280;8513;42.662;23.350;2023-04-26T09:30:06;94030.06;;;14.45;43.47
16793;BME280;8513;42.662;23.350;2023-04-26T09:32:45;94033.06;;;14.84;42.84
16793;BME280;8513;42.662;23.350;2023-04-26T09:35:24;94039.56;;;14.81;42.67
16793;BME280;8513;42.662;23.350;2023-04-26T09:38:09;94041.41;;;15.00;41.90
16793;BME280;8513;42.662;23.350;2023-04-26T09:45:33;94031.63;;;14.94;41.44
16793;BME280;8513;42.662;23.350;2023-04-26T09:48:29;94030.00;;;15.00;41.77
16793;BME280;8513;42.662;23.350;2023-04-26T09:50:57;94019.63;;;15.25;40.82
16793;BME280;8513;42.662;23.350;2023-04-26T09:53:44;94018.41;;;15.21;41.27
16793;BME280;8513;42.662;23.350;2023-04-26T09:56:19;94016.94;;;15.38;41.22
16793;BME280;8513;42.662;23.350;2023-04-26T10:01:13;94018.97;;;15.50;40.32
16793;BME280;8513;42.662;23.350;2023-04-26T10:03:39;94015.53;;;15.42;40.40
16793;BME280;8513;42.662;23.350;2023-04-26T10:06:07;94018.97;;;15.50;39.67
16793;BME280;8513;42.662;23.350;2023-04-26T10:08:33;94012.22;;;15.67;39.17
16793;BME280;8513;42.662;23.350;2023-04-26T10:10:59;94008.53;;;15.88;37.95
16793;BME280;8513;42.662;23.350;2023-04-26T10:13:27;94006.28;;;15.85;37.82
16793;BME280;8513;42.662;23.350;2023-04-26T10:15:53;94011.63;;;15.72;40.00
16793;BME280;8513;42.662;23.350;2023-04-26T10:18:19;94007.69;;;15.94;37.91
16793;BME280;8513;42.662;23.350;2023-04-26T10:20:47;94008.34;;;15.76;38.03
16793;BME280;8513;42.662;23.350;2023-04-26T10:23:24;94002.00;;;15.84;38.09
16793;BME280;8513;42.662;23.350;2023-04-26T10:25:50;94006.13;;;15.80;39.02
16793;BME280;8513;42.662;23.350;2023-04-26T10:31:12;94016.06;;;15.84;38.16
16793;BME280;8513;42.662;23.350;2023-04-26T10:33:38;94000.09;;;16.04;37.22
16793;BME280;8513;42.662;23.350;2023-04-26T10:38:29;94006.28;;;15.85;36.21
16793;BME280;8513;42.662;23.350;2023-04-26T10:40:55;93997.31;;;15.79;36.56
16793;BME280;8513;42.662;23.350;2023-04-26T10:43:40;93996.19;;;16.14;35.98
16793;BME280;8513;42.662;23.350;2023-04-26T10:46:33;94004.19;;;16.07;35.86
16793;BME280;8513;42.662;23.350;2023-04-26T10:49:11;94014.97;;;16.05;35.22
16793;BME280;8513;42.662;23.350;2023-04-26T10:51:37;93994.38;;;16.01;35.69
16793;BME280;8513;42.662;23.350;2023-04-26T10:54:02;93987.47;;;16.00;35.95
16793;BME280;8513;42.662;23.350;2023-04-26T10:59:10;94001.38;;;16.40;35.29
16793;BME280;8513;42.662;23.350;2023-04-26T11:01:36;94000.56;;;16.33;34.04
16793;BME280;8513;42.662;23.350;2023-04-26T11:04:09;94009.03;;;16.17;34.72
16793;BME280;8513;42.662;23.350;2023-04-26T11:06:54;93994.94;;;16.23;34.83
16793;BME280;8513;42.662;23.350;2023-04-26T11:09:47;93992.47;;;16.28;34.54
16793;BME280;8513;42.662;23.350;2023-04-26T11:12:14;94011.34;;;16.45;34.27
16793;BME280;8513;42.662;23.350;2023-04-26T11:14:41;93991.53;;;16.47;33.76
16793;BME280;8513;42.662;23.350;2023-04-26T11:17:10;93989.09;;;16.46;33.34
16793;BME280;8513;42.662;23.350;2023-04-26T11:19:36;93999.75;;;16.39;33.69
16793;BME280;8513;42.662;23.350;2023-04-26T11:22:02;93991.00;;;16.32;33.83
16793;BME280;8513;42.662;23.350;2023-04-26T11:24:31;93990.06;;;16.13;35.17
16793;BME280;8513;42.662;23.350;2023-04-26T11:26:57;93989.13;;;16.39;33.88
16793;BME280;8513;42.662;23.350;2023-04-26T11:29:24;93994.13;;;16.61;33.41
16793;BME280;8513;42.662;23.350;2023-04-26T11:31:54;93988.00;;;16.60;33.33
16793;BME280;8513;42.662;23.350;2023-04-26T11:34:33;93995.63;;;16.75;32.91
16793;BME280;8513;42.662;23.350;2023-04-26T11:37:03;93991.56;;;16.41;32.77
16793;BME280;8513;42.662;23.350;2023-04-26T11:39:32;94001.72;;;16.50;32.56
16793;BME280;8513;42.662;23.350;2023-04-26T11:42:11;94002.00;;;16.36;33.03
16793;BME280;8513;42.662;23.350;2023-04-26T11:44:38;93996.69;;;16.36;33.15
16793;BME280;8513;42.662;23.350;2023-04-26T11:47:05;93997.47;;;16.43;32.40
16793;BME280;8513;42.662;23.350;2023-04-26T11:49:32;93997.28;;;16.38;34.02
16793;BME280;8513;42.662;23.350;2023-04-26T11:51:58;93998.06;;;16.45;32.99
16793;BME280;8513;42.662;23.350;2023-04-26T11:54:28;93993.75;;;16.50;33.26
16793;BME280;8513;42.662;23.350;2023-04-26T11:56:55;93999.53;;;16.72;31.83
16793;BME280;8513;42.662;23.350;2023-04-26T11:59:28;93996.88;;;16.72;31.82
16793;BME280;8513;42.662;23.350;2023-04-26T12:01:55;93989.72;;;16.80;31.29
16793;BME280;8513;42.662;23.350;2023-04-26T12:04:27;93990.75;;;16.79;31.45
16793;BME280;8513;42.662;23.350;2023-04-26T12:06:56;93996.06;;;16.79;31.84
16793;BME280;8513;42.662;23.350;2023-04-26T12:09:23;93990.06;;;16.90;31.26
16793;BME280;8513;42.662;23.350;2023-04-26T12:11:58;93979.69;;;16.50;32.44
16793;BME280;8513;42.662;23.350;2023-04-26T12:14:34;93985.50;;;16.65;32.05
16793;BME280;8513;42.662;23.350;2023-04-26T12:17:00;93977.13;;;17.00;32.16
16793;BME280;8513;42.662;23.350;2023-04-26T12:19:33;93980.41;;;17.20;31.64
16793;BME280;8513;42.662;23.350;2023-04-26T12:22:01;93982.53;;;17.12;31.86
16793;BME280;8513;42.662;23.350;2023-04-26T12:24:28;93974.81;;;17.29;31.37
16793;BME280;8513;42.662;23.350;2023-04-26T12:26:54;93977.81;;;16.89;31.79
16793;BME280;8513;42.662;23.350;2023-04-26T12:29:20;93985.13;;;17.18;31.90
16793;BME280;8513;42.662;23.350;2023-04-26T12:31:45;93977.09;;;17.25;31.18
16793;BME280;8513;42.662;23.350;2023-04-26T12:34:11;93967.41;;;17.37;31.03
16793;BME280;8513;42.662;23.350;2023-04-26T12:36:39;93972.59;;;17.26;31.12
16793;BME280;8513;42.662;23.350;2023-04-26T12:39:04;93971.66;;;16.95;30.87
16793;BME280;8513;42.662;23.350;2023-04-26T12:41:31;93973.53;;;16.88;31.11
16793;BME280;8513;42.662;23.350;2023-04-26T12:43:56;93971.97;;;16.73;31.73
16793;BME280;8513;42.662;23.350;2023-04-26T12:46:22;93978.88;;;16.81;31.71
16793;BME280;8513;42.662;23.350;2023-04-26T12:48:47;93977.88;;;17.07;30.96
16793;BME280;8513;42.662;23.350;2023-04-26T12:51:13;93963.97;;;17.05;31.43
16793;BME280;8513;42.662;23.350;2023-04-26T12:53:38;93975.25;;;17.26;30.82
16793;BME280;8513;42.662;23.350;2023-04-26T12:56:04;93979.22;;;17.16;31.38
16793;BME280;8513;42.662;23.350;2023-04-26T12:58:30;93973.41;;;17.26;31.18
16793;BME280;8513;42.662;23.350;2023-04-26T13:00:55;93963.44;;;16.96;31.44
16793;BME280;8513;42.662;23.350;2023-04-26T13:03:21;93970.69;;;16.89;31.34
16793;BME280;8513;42.662;23.350;2023-04-26T13:05:46;93968.72;;;17.03;30.53
16793;BME280;8513;42.662;23.350;2023-04-26T13:08:12;93982.44;;;16.68;30.83
16793;BME280;8513;42.662;23.350;2023-04-26T13:10:37;93987.66;;;16.43;31.78
16793;BME280;8513;42.662;23.350;2023-04-26T13:13:02;93992.78;;;16.38;33.09
16793;BME280;8513;42.662;23.350;2023-04-26T13:15:28;93997.34;;;16.31;33.46
16793;BME280;8513;42.662;23.350;2023-04-26T13:17:54;93995.91;;;15.77;34.37